createdAt,value
2019-02-23T00:01:04.695Z,68.75
2019-02-23T00:03:34.012Z,69.39
2019-02-23T00:06:02.859Z,69.28
2019-02-23T00:08:34.863Z,68.94
2019-02-23T00:11:04.323Z,69.05
2019-02-23T00:13:33.363Z,69.21
2019-02-23T00:16:02.690Z,69.50
2019-02-23T00:18:32.059Z,69.12
2019-02-23T00:21:01.203Z,69.23
2019-02-23T00:23:30.891Z,69.40
2019-02-23T00:26:00.089Z,69.29
2019-02-23T00:28:29.760Z,69.73
2019-02-23T00:30:59.135Z,69.23
2019-02-23T00:33:27.974Z,69.36
2019-02-23T00:35:57.653Z,69.60
2019-02-23T00:38:26.894Z,69.18
2019-02-23T00:40:56.037Z,69.27
2019-02-23T00:43:25.009Z,68.98
2019-02-23T00:45:54.341Z,69.00
2019-02-23T00:48:23.268Z,68.95
2019-02-23T00:50:53.125Z,69.48
2019-02-23T00:53:21.948Z,69.38
2019-02-23T00:55:51.076Z,69.07
2019-02-23T00:58:22.369Z,69.02
2019-02-23T01:00:51.617Z,68.99
2019-02-23T01:03:20.612Z,68.56
2019-02-23T01:16:31.718Z,68.96
2019-02-23T01:19:01.502Z,69.17
2019-02-23T01:21:30.982Z,69.13
2019-02-23T01:24:00.262Z,69.12
2019-02-23T01:26:29.970Z,68.42
2019-02-23T01:28:59.036Z,68.69
2019-02-23T01:31:28.769Z,68.57
2019-02-23T01:33:57.620Z,68.50
2019-02-23T01:36:27.097Z,68.40
2019-02-23T01:38:56.998Z,68.54
2019-02-23T01:41:26.134Z,68.59
2019-02-23T01:43:55.330Z,68.37
2019-02-23T01:46:25.112Z,68.04
2019-02-23T01:48:54.315Z,67.92
2019-02-23T01:51:23.721Z,67.49
2019-02-23T01:53:53.678Z,67.42
2019-02-23T01:56:22.907Z,68.03
2019-02-23T01:58:51.888Z,67.29
2019-02-23T02:01:24.410Z,67.22
2019-02-23T02:03:53.714Z,68.04
2019-02-23T02:06:23.594Z,68.25
2019-02-23T02:08:52.690Z,68.45
2019-02-23T02:11:22.594Z,69.18
2019-02-23T02:13:51.443Z,69.17
2019-02-23T02:16:20.428Z,69.83
2019-02-23T02:18:49.604Z,70.01
2019-02-23T02:21:18.761Z,70.72
2019-02-23T02:23:47.568Z,70.85
2019-02-23T02:26:16.520Z,70.62
2019-02-23T02:28:45.905Z,70.97
2019-02-23T02:31:15.073Z,71.39
2019-02-23T02:34:04.537Z,71.08
2019-02-23T02:36:36.395Z,71.26
2019-02-23T02:39:11.889Z,71.40
2019-02-23T02:41:40.984Z,72.10
2019-02-23T02:44:10.135Z,72.58
2019-02-23T02:46:39.957Z,72.81
2019-02-23T02:49:13.207Z,72.74
2019-02-23T02:51:42.339Z,72.90
2019-02-23T02:54:11.551Z,72.41
2019-02-23T02:56:40.363Z,73.62
2019-02-23T02:59:09.462Z,72.86
2019-02-23T03:01:41.737Z,72.72
2019-02-23T03:04:10.946Z,74.23
2019-02-23T03:06:41.782Z,74.24
2019-02-23T03:09:12.339Z,74.10
2019-02-23T03:11:41.690Z,74.67
2019-02-23T03:24:13.366Z,73.45
2019-02-23T03:26:42.782Z,73.58
2019-02-23T03:29:11.903Z,73.61
2019-02-23T03:31:41.287Z,73.18
2019-02-23T03:34:10.562Z,72.77
2019-02-23T03:36:40.169Z,72.21
2019-02-23T03:39:09.592Z,72.13
2019-02-23T03:41:39.499Z,71.94
2019-02-23T03:44:08.547Z,71.61
2019-02-23T03:46:37.835Z,71.96
2019-02-23T03:49:06.852Z,71.77
2019-02-23T03:51:36.559Z,71.56
2019-02-23T03:54:06.523Z,72.27
2019-02-23T03:56:35.517Z,72.48
2019-02-23T03:59:04.914Z,72.31
2019-02-23T04:01:34.271Z,71.69
2019-02-23T04:04:03.486Z,71.20
2019-02-23T04:06:33.008Z,71.74
2019-02-23T04:09:05.145Z,71.68
2019-02-23T04:11:34.427Z,71.58
2019-02-23T04:14:03.950Z,71.38
2019-02-23T04:16:33.403Z,71.30
2019-02-23T04:19:02.707Z,71.68
2019-02-23T04:21:31.684Z,71.79
2019-02-23T04:24:01.131Z,72.74
2019-02-23T04:26:30.357Z,72.76
2019-02-23T04:29:00.074Z,72.75
2019-02-23T04:31:29.429Z,72.78
2019-02-23T04:33:58.482Z,72.62
2019-02-23T04:36:27.923Z,72.89
2019-02-23T04:38:57.316Z,72.65
2019-02-23T04:41:29.348Z,72.69
2019-02-23T04:43:59.477Z,72.85
2019-02-23T04:46:28.753Z,73.20
2019-02-23T04:49:00.419Z,73.69
2019-02-23T04:51:29.299Z,73.92
2019-02-23T04:53:58.675Z,73.68
2019-02-23T04:56:27.799Z,73.63
2019-02-23T04:58:57.210Z,74.10
2019-02-23T05:01:26.523Z,74.15
2019-02-23T05:03:55.728Z,74.14
2019-02-23T05:06:27.780Z,73.88
2019-02-23T05:08:57.258Z,73.33
2019-02-23T05:11:26.409Z,74.28
2019-02-23T05:13:55.716Z,73.62
2019-02-23T05:16:24.875Z,74.16
2019-02-23T05:18:54.420Z,73.57
2019-02-23T05:21:27.006Z,73.12
2019-02-23T05:23:56.245Z,72.37
2019-02-23T05:26:26.050Z,73.09
2019-02-23T05:28:55.143Z,72.39
2019-02-23T05:31:25.312Z,72.47
2019-02-23T05:33:54.747Z,72.36
2019-02-23T05:36:24.010Z,72.94
2019-02-23T05:38:53.122Z,72.99
2019-02-23T05:41:22.988Z,73.77
2019-02-23T05:43:52.283Z,73.26
2019-02-23T05:46:21.692Z,73.32
2019-02-23T05:48:50.773Z,72.68
2019-02-23T05:51:20.116Z,73.06
2019-02-23T05:53:49.334Z,73.24
2019-02-23T05:56:18.645Z,73.15
2019-02-23T05:58:48.498Z,73.17
2019-02-23T06:01:17.652Z,73.14
2019-02-23T06:03:46.433Z,73.11
2019-02-23T06:06:15.727Z,73.34
2019-02-23T06:08:44.631Z,73.51
2019-02-23T06:11:13.887Z,73.20
2019-02-23T06:13:43.436Z,73.61
2019-02-23T06:16:21.954Z,73.27
2019-02-23T06:18:51.907Z,73.69
2019-02-23T06:21:22.430Z,73.45
2019-02-23T06:23:51.473Z,73.42
2019-02-23T06:26:20.555Z,73.33
2019-02-23T06:28:49.510Z,73.43
2019-02-23T06:31:18.748Z,73.71
2019-02-23T06:33:47.780Z,73.54
2019-02-23T06:36:16.651Z,73.50
2019-02-23T06:38:46.133Z,73.21
2019-02-23T06:41:15.661Z,73.69
2019-02-23T06:43:44.766Z,73.63
2019-02-23T06:46:13.838Z,73.39
2019-02-23T06:48:43.357Z,73.54
2019-02-23T06:51:13.461Z,73.30
2019-02-23T06:53:42.361Z,73.58
2019-02-23T06:56:11.572Z,73.08
2019-02-23T06:58:40.995Z,73.30
2019-02-23T07:01:09.984Z,73.34
2019-02-23T07:03:38.913Z,73.20
2019-02-23T07:06:07.894Z,73.50
2019-02-23T07:08:37.500Z,73.18
2019-02-23T07:11:07.442Z,73.49
2019-02-23T07:13:37.075Z,73.33
2019-02-23T07:16:06.239Z,73.42
2019-02-23T07:18:35.458Z,73.45
2019-02-23T07:21:04.368Z,73.33
2019-02-23T07:23:33.252Z,73.31
2019-02-23T07:26:02.489Z,73.00
2019-02-23T07:28:31.550Z,73.13
2019-02-23T07:31:03.838Z,73.43
2019-02-23T07:33:36.254Z,73.15
2019-02-23T07:36:05.559Z,73.04
2019-02-23T07:38:35.581Z,72.51
2019-02-23T07:41:04.853Z,72.49
2019-02-23T07:43:34.039Z,72.27
2019-02-23T07:46:03.225Z,72.05
2019-02-23T07:48:32.204Z,71.39
2019-02-23T07:51:01.520Z,71.54
2019-02-23T07:53:30.579Z,71.03
2019-02-23T07:55:59.903Z,70.79
2019-02-23T07:58:29.297Z,70.20
2019-02-23T08:00:58.495Z,69.87
2019-02-23T08:03:28.744Z,69.75
2019-02-23T08:05:57.830Z,69.45
2019-02-23T08:08:27.057Z,69.19
2019-02-23T08:10:55.936Z,68.60
2019-02-23T08:13:25.157Z,69.38
2019-02-23T08:15:54.838Z,68.34
2019-02-23T08:18:24.437Z,68.13
2019-02-23T08:20:53.897Z,68.29
2019-02-23T08:23:23.812Z,67.82
2019-02-23T08:25:54.005Z,67.42
2019-02-23T08:28:23.502Z,67.24
2019-02-23T08:30:52.721Z,66.99
2019-02-23T08:33:22.177Z,66.71
2019-02-23T08:35:50.996Z,66.77
2019-02-23T08:38:21.188Z,66.29
2019-02-23T08:40:52.524Z,65.58
2019-02-23T08:43:40.333Z,65.41
2019-02-23T08:46:10.048Z,64.04
2019-02-23T08:48:39.028Z,64.22
2019-02-23T08:51:17.743Z,63.68
2019-02-23T08:53:46.537Z,63.31
2019-02-23T08:56:15.961Z,62.16
2019-02-23T09:01:48.786Z,60.75
2019-02-23T09:04:17.706Z,60.21
2019-02-23T09:06:47.638Z,60.13
2019-02-23T09:09:17.022Z,59.41
2019-02-23T09:11:45.919Z,59.41
2019-02-23T09:17:46.183Z,58.74
2019-02-23T09:20:15.285Z,58.45
2019-02-23T09:22:44.681Z,57.73
2019-02-23T09:25:13.712Z,57.50
2019-02-23T09:27:42.587Z,57.37
2019-02-23T09:30:11.587Z,56.05
2019-02-23T09:32:40.539Z,55.78
2019-02-23T09:35:09.593Z,54.88
2019-02-23T09:37:38.773Z,55.02
2019-02-23T09:40:08.900Z,54.72
2019-02-23T09:42:39.083Z,53.61
2019-02-23T09:45:09.571Z,53.93
2019-02-23T09:47:38.547Z,53.92
2019-02-23T09:50:08.972Z,53.86
2019-02-23T09:52:38.114Z,53.32
2019-02-23T09:55:06.974Z,52.48
2019-02-23T09:57:35.818Z,53.15
2019-02-23T10:00:15.073Z,51.44
2019-02-23T10:02:41.176Z,51.41
2019-02-23T10:05:38.050Z,49.84
2019-02-23T10:08:06.227Z,49.76
2019-02-23T10:10:36.157Z,49.81
2019-02-23T10:13:05.014Z,50.45
2019-02-23T10:15:34.033Z,49.99
2019-02-23T10:18:02.869Z,49.90
2019-02-23T10:20:31.694Z,50.57
2019-02-23T10:23:01.604Z,50.78
2019-02-23T10:25:30.864Z,50.34
2019-02-23T10:28:03.138Z,50.96
2019-02-23T10:30:32.121Z,51.29
2019-02-23T10:33:00.945Z,50.40
2019-02-23T10:35:29.950Z,50.58
2019-02-23T10:38:00.023Z,50.40
2019-02-23T10:40:28.849Z,50.93
2019-02-23T10:42:57.861Z,51.06
2019-02-23T10:45:26.853Z,51.34
2019-02-23T10:47:55.727Z,51.76
2019-02-23T10:50:24.636Z,52.23
2019-02-23T10:52:54.040Z,50.66
2019-02-23T10:55:23.724Z,50.17
2019-02-23T10:57:54.022Z,50.83
2019-02-23T11:00:22.987Z,50.84
2019-02-23T11:02:52.043Z,50.09
2019-02-23T11:05:21.332Z,50.09
2019-02-23T11:07:50.461Z,49.63
2019-02-23T11:10:20.473Z,50.06
2019-02-23T11:12:49.366Z,49.71
2019-02-23T11:15:19.305Z,49.04
2019-02-23T11:17:50.979Z,49.28
2019-02-23T11:20:20.124Z,48.33
2019-02-23T11:22:49.385Z,47.98
2019-02-23T11:25:18.300Z,48.50
2019-02-23T11:27:47.223Z,49.11
2019-02-23T11:30:17.700Z,48.53
2019-02-23T11:32:49.714Z,48.58
2019-02-23T11:35:18.689Z,48.05
2019-02-23T11:37:47.992Z,46.88
2019-02-23T11:40:16.939Z,46.70
2019-02-23T11:42:45.740Z,47.52
2019-02-23T11:45:15.081Z,44.27
2019-02-23T11:47:44.174Z,44.30
2019-02-23T11:50:13.629Z,44.09
2019-02-23T11:52:42.536Z,43.94
2019-02-23T11:55:11.634Z,43.72
2019-02-23T11:57:40.503Z,43.63
2019-02-23T12:00:09.918Z,43.14
2019-02-23T12:02:39.038Z,43.98
2019-02-23T12:05:08.247Z,44.51
2019-02-23T12:07:37.069Z,43.73
2019-02-23T12:10:07.728Z,43.34
2019-02-23T12:12:36.656Z,43.84
2019-02-23T12:15:05.839Z,43.37
2019-02-23T12:17:34.698Z,43.18
2019-02-23T12:20:03.700Z,43.71
2019-02-23T12:22:32.649Z,41.85
2019-02-23T12:25:01.818Z,41.59
2019-02-23T12:27:30.847Z,41.66
2019-02-23T12:29:59.780Z,42.13
2019-02-23T12:32:29.398Z,41.24
2019-02-23T12:34:58.594Z,41.49
2019-02-23T12:37:27.529Z,42.44
2019-02-23T12:39:56.380Z,42.02
2019-02-23T12:42:27.526Z,42.12
2019-02-23T12:44:57.115Z,42.10
2019-02-23T12:47:26.093Z,41.39
2019-02-23T12:50:03.617Z,41.25
2019-02-23T12:52:32.473Z,41.68
2019-02-23T12:55:01.313Z,42.91
2019-02-23T12:57:31.287Z,42.40
2019-02-23T13:00:08.444Z,41.45
2019-02-23T13:02:41.690Z,41.74
2019-02-23T13:05:10.692Z,42.23
2019-02-23T13:07:39.681Z,42.08
2019-02-23T13:10:11.313Z,42.33
2019-02-23T13:13:11.222Z,42.84
2019-02-23T13:16:13.800Z,42.88
2019-02-23T13:19:02.631Z,43.05
2019-02-23T13:22:00.077Z,42.82
2019-02-23T13:25:12.049Z,42.62
2019-02-23T13:28:30.436Z,43.40
2019-02-23T13:31:17.397Z,43.48
2019-02-23T13:34:27.779Z,43.06
2019-02-23T13:40:56.303Z,42.84
2019-02-23T13:44:13.078Z,42.37
2019-02-23T13:47:23.881Z,42.92
2019-02-23T13:50:44.593Z,42.10
2019-02-23T13:53:53.285Z,42.34
2019-02-23T13:56:49.757Z,42.63
2019-02-23T13:59:42.501Z,43.29
2019-02-23T14:03:02.146Z,43.02
2019-02-23T14:06:10.463Z,42.74
2019-02-23T14:09:08.391Z,42.56
2019-02-23T14:12:10.886Z,42.78
2019-02-23T14:15:05.872Z,41.91
2019-02-23T14:18:00.141Z,41.97
2019-02-23T14:20:54.874Z,42.25
2019-02-23T14:24:13.925Z,42.81
2019-02-23T14:27:20.165Z,42.26
2019-02-23T14:30:18.156Z,42.85
2019-02-23T14:33:24.505Z,42.73
2019-02-23T14:36:09.396Z,42.56
2019-02-23T14:41:59.529Z,42.77
2019-02-23T14:44:52.124Z,42.29
2019-02-23T14:47:56.876Z,41.97
2019-02-23T14:51:16.107Z,42.60
2019-02-23T14:54:09.357Z,41.99
2019-02-23T14:57:10.076Z,42.23
2019-02-23T15:00:11.802Z,42.82
2019-02-23T15:03:19.815Z,42.81
2019-02-23T15:06:28.631Z,43.55
2019-02-23T15:09:44.952Z,43.36
2019-02-23T15:13:10.053Z,43.39
2019-02-23T15:16:41.661Z,44.27
2019-02-23T15:19:47.734Z,44.83
2019-02-23T15:22:59.447Z,43.34
2019-02-23T15:26:10.258Z,42.95
2019-02-23T15:29:16.830Z,43.03
2019-02-23T15:32:26.051Z,43.25
2019-02-23T15:35:18.535Z,43.01
2019-02-23T15:38:37.443Z,43.54
2019-02-23T15:41:56.751Z,42.78
2019-02-23T15:45:12.259Z,42.75
2019-02-23T15:48:28.714Z,43.60
2019-02-23T15:50:59.702Z,43.27
2019-02-23T15:53:28.747Z,43.34
2019-02-23T15:55:59.212Z,42.92
2019-02-23T15:58:28.258Z,43.32
2019-02-23T16:00:57.109Z,43.66
2019-02-23T16:03:27.521Z,42.89
2019-02-23T16:05:59.687Z,43.64
2019-02-23T16:08:29.302Z,43.21
2019-02-23T16:11:00.054Z,43.99
2019-02-23T16:13:29.179Z,44.79
2019-02-23T16:15:58.340Z,45.88
2019-02-23T16:18:27.774Z,47.06
2019-02-23T16:20:57.063Z,46.42
2019-02-23T16:23:35.005Z,46.62
2019-02-23T16:25:57.721Z,46.72
2019-02-23T16:28:26.684Z,47.14
2019-02-23T16:30:55.656Z,47.98
2019-02-23T16:33:24.708Z,47.76
2019-02-23T16:35:53.974Z,48.43
2019-02-23T16:38:22.848Z,48.43
2019-02-23T16:40:52.376Z,48.53
2019-02-23T16:43:24.191Z,48.75
2019-02-23T16:45:53.035Z,49.37
2019-02-23T16:48:22.097Z,49.25
2019-02-23T16:50:51.088Z,49.72
2019-02-23T16:53:20.158Z,49.53
2019-02-23T16:55:51.168Z,49.66
2019-02-23T16:58:21.502Z,51.48
2019-02-23T17:00:50.823Z,50.93
2019-02-23T17:03:19.979Z,51.16
2019-02-23T17:05:50.717Z,51.24
2019-02-23T17:08:19.759Z,52.02
2019-02-23T17:10:49.912Z,51.11
2019-02-23T17:13:19.049Z,52.71
2019-02-23T17:15:50.037Z,54.14
2019-02-23T17:18:19.105Z,53.70
2019-02-23T17:20:48.062Z,54.79
2019-02-23T17:23:17.488Z,55.25
2019-02-23T17:25:46.803Z,55.15
2019-02-23T17:28:15.573Z,56.08
2019-02-23T17:30:45.040Z,55.35
2019-02-23T17:33:14.197Z,55.39
2019-02-23T17:35:43.278Z,52.62
2019-02-23T17:38:16.244Z,53.13
2019-02-23T17:40:43.277Z,52.82
2019-02-23T17:43:12.197Z,51.53
2019-02-23T17:45:42.324Z,53.92
2019-02-23T17:48:11.296Z,54.00
2019-02-23T17:50:42.615Z,53.55
2019-02-23T17:53:14.093Z,52.79
2019-02-23T17:55:44.070Z,53.05
2019-02-23T17:58:14.602Z,52.03
2019-02-23T18:00:47.398Z,53.14
2019-02-23T18:03:18.533Z,55.31
2019-02-23T18:06:04.847Z,53.43
2019-02-23T18:08:35.486Z,53.90
2019-02-23T18:11:04.711Z,52.43
2019-02-23T18:13:33.748Z,52.61
2019-02-23T18:16:04.006Z,51.88
2019-02-23T18:18:32.890Z,51.50
2019-02-23T18:21:03.443Z,51.37
2019-02-23T18:23:34.720Z,51.73
2019-02-23T18:26:08.148Z,51.37
2019-02-23T18:29:05.123Z,51.53
2019-02-23T18:31:39.817Z,51.30
2019-02-23T18:34:10.994Z,51.43
2019-02-23T18:36:47.212Z,51.75
2019-02-23T18:39:17.827Z,50.98
2019-02-23T18:41:54.202Z,51.46
2019-02-23T18:44:23.964Z,50.98
2019-02-23T18:46:53.190Z,51.44
2019-02-23T18:49:23.896Z,51.26
2019-02-23T18:51:52.765Z,51.17
2019-02-23T18:54:21.849Z,51.15
2019-02-23T18:56:51.512Z,51.12
2019-02-23T18:59:22.637Z,51.78
2019-02-23T19:01:52.296Z,51.27
2019-02-23T19:04:23.060Z,51.46
2019-02-23T19:06:52.755Z,51.19
2019-02-23T19:09:21.802Z,51.15
2019-02-23T19:11:50.611Z,51.42
2019-02-23T19:14:20.066Z,51.20
2019-02-23T19:16:55.614Z,51.89
2019-02-23T19:19:24.881Z,52.71
2019-02-23T19:21:54.862Z,52.49
2019-02-23T19:24:24.735Z,51.09
2019-02-23T19:26:53.731Z,52.59
2019-02-23T19:29:23.357Z,53.13
2019-02-23T19:31:52.346Z,52.75
2019-02-23T19:34:21.930Z,52.38
2019-02-23T19:36:51.085Z,53.78
2019-02-23T19:39:20.390Z,52.61
2019-02-23T19:41:49.361Z,52.87
2019-02-23T19:44:19.710Z,53.60
2019-02-23T19:50:10.302Z,55.33
2019-02-23T19:52:39.782Z,55.25
2019-02-23T19:55:10.248Z,53.93
2019-02-23T19:57:41.330Z,53.74
2019-02-23T20:00:11.153Z,53.23
2019-02-23T20:02:40.587Z,54.81
2019-02-23T20:05:10.434Z,55.24
2019-02-23T20:07:40.683Z,55.30
2019-02-23T20:10:10.815Z,54.60
2019-02-23T20:12:40.043Z,53.74
2019-02-23T20:15:08.952Z,53.83
2019-02-23T20:17:39.219Z,53.59
2019-02-23T20:20:08.295Z,54.41
2019-02-23T20:22:37.158Z,55.49
2019-02-23T20:25:06.257Z,55.83
2019-02-23T20:27:35.221Z,56.90
2019-02-23T20:30:04.683Z,57.53
2019-02-23T20:32:34.870Z,57.60
2019-02-23T20:35:04.445Z,58.14
2019-02-23T20:37:33.258Z,58.39
2019-02-23T20:40:02.481Z,58.43
2019-02-23T20:42:32.373Z,58.93
2019-02-23T20:45:01.991Z,59.89
2019-02-23T20:47:30.970Z,60.14
2019-02-23T20:50:00.481Z,60.20
2019-02-23T20:52:29.509Z,60.64
2019-02-23T20:54:58.956Z,60.71
2019-02-23T20:57:28.081Z,60.84
2019-02-23T20:59:58.439Z,61.10
2019-02-23T21:02:27.421Z,60.92
2019-02-23T21:04:56.891Z,61.08
2019-02-23T21:07:25.999Z,61.57
2019-02-23T21:09:56.553Z,62.19
2019-02-23T21:12:25.848Z,61.88
2019-02-23T21:14:55.119Z,62.14
2019-02-23T21:17:24.060Z,62.38
2019-02-23T21:19:54.240Z,62.75
2019-02-23T21:22:23.219Z,62.96
2019-02-23T21:24:52.287Z,62.83
2019-02-23T21:27:24.300Z,63.69
2019-02-23T21:29:54.667Z,63.45
2019-02-23T21:32:25.949Z,64.91
2019-02-23T21:34:59.495Z,63.44
2019-02-23T21:37:29.358Z,63.15
2019-02-23T21:39:58.628Z,63.49
2019-02-23T21:45:23.465Z,64.58
2019-02-23T21:47:53.210Z,64.60
2019-02-23T21:50:22.040Z,64.50
2019-02-23T21:52:51.031Z,64.33
2019-02-23T21:55:21.915Z,65.25
2019-02-23T21:57:50.843Z,64.98
2019-02-23T22:00:21.577Z,64.47
2019-02-23T22:02:50.444Z,64.61
2019-02-23T22:05:19.483Z,64.69
2019-02-23T22:07:48.702Z,64.70
2019-02-23T22:10:17.716Z,65.26
2019-02-23T22:12:47.035Z,65.16
2019-02-23T22:15:20.624Z,66.29
2019-02-23T22:17:49.532Z,65.39
2019-02-23T22:20:21.816Z,66.03
2019-02-23T22:22:50.675Z,65.17
2019-02-23T22:25:31.180Z,65.28
2019-02-23T22:28:00.377Z,64.51
2019-02-23T22:30:29.281Z,64.40
2019-02-23T22:32:58.297Z,63.32
2019-02-23T22:35:27.522Z,64.13
2019-02-23T22:38:03.434Z,64.63
2019-02-23T22:40:32.535Z,65.39
2019-02-23T22:43:01.349Z,66.06
2019-02-23T22:45:30.192Z,65.81
2019-02-23T22:47:59.086Z,66.17
2019-02-23T22:50:28.254Z,66.08
2019-02-23T22:52:57.544Z,64.76
2019-02-23T22:55:26.345Z,65.51
2019-02-23T22:57:55.215Z,65.10
2019-02-23T23:00:28.426Z,65.81
2019-02-23T23:02:57.628Z,64.61
2019-02-23T23:05:26.734Z,64.37
2019-02-23T23:07:55.598Z,64.16
2019-02-23T23:10:24.616Z,64.10
2019-02-23T23:12:53.439Z,63.73
2019-02-23T23:15:25.589Z,63.67
2019-02-23T23:17:54.592Z,63.95
2019-02-23T23:20:23.844Z,63.64
2019-02-23T23:22:53.129Z,63.89
2019-02-23T23:25:22.051Z,63.88
2019-02-23T23:27:51.159Z,63.51
2019-02-23T23:30:20.664Z,63.99
2019-02-23T23:32:49.504Z,63.71
2019-02-23T23:35:18.745Z,63.58
2019-02-23T23:37:54.859Z,63.62
2019-02-23T23:40:23.668Z,63.71
2019-02-23T23:42:58.234Z,64.17
2019-02-23T23:45:23.273Z,63.92
2019-02-23T23:47:52.176Z,63.92
2019-02-23T23:50:21.173Z,63.55
2019-02-23T23:52:50.053Z,64.00
2019-02-23T23:55:18.945Z,63.67
2019-02-23T23:57:57.781Z,64.06
